Main page
METAR-TAF:

METAR-TAF

Airports :

Eleusina, Greece

latitude: 38-04N, longitude: 023-33E, elevation: 44 m

Current weather observation

The report was made 13 minutes ago, at 08:50 UTC
Wind 10 kt from the North with gusts up to 21 kt
Temperature 19°C
Humidity 68%
Pressure 1020 hPa
Visibility 10 km or more
Few clouds at a height of 1800 ft
Broken clouds at a height of 2500 ft
Broken clouds at a height of 7000 ft

METAR: LGEL 150850Z 35010G21KT 9999 FEW018 BKN025 BKN070 19/13 Q1020

Time: 12:03 (09:03 UTC)

Forecast

The report was made 4 hours and 3 minutes ago, at 05:00 UTC
Forecast valid from 15 at 06 UTC to 16 at 06 UTC
Wind 12 kt from the North/Northwest
Visibility 10 km or more
Few clouds at a height of 1800 ft
Broken clouds at a height of 2500 ft

TAF: LGEL 150500Z 1506/1606 34012KT 9999 FEW018 BKN025

Weather observations and forecasts of more than 4000 airports (METAR and TAF reports).

The available stations are represented by yellow and red dots on the map.

Hover mouse over dot to see the name of the station.

Then click to see weather observations and forecasts.

To change the map : click on the green buttons with a black cross to zoom in, on the green button with a dash to zoom out, or on the green arrows for adjacent maps.


METAR-TAF: